createdAt,value
2022-12-03T00:01:31.124Z,20.83
2022-12-03T00:03:58.265Z,21.42
2022-12-03T00:06:26.306Z,21.42
2022-12-03T00:08:54.928Z,21.48
2022-12-03T00:11:21.775Z,21.35
2022-12-03T00:13:48.768Z,21.17
2022-12-03T00:16:15.559Z,22.05
2022-12-03T00:18:42.440Z,21.52
2022-12-03T00:21:09.209Z,22.40
2022-12-03T00:23:41.813Z,24.60
2022-12-03T00:26:09.291Z,21.65
2022-12-03T00:28:36.082Z,21.92
2022-12-03T00:31:02.899Z,22.65
2022-12-03T00:33:29.763Z,21.13
2022-12-03T00:35:56.585Z,22.88
2022-12-03T00:38:23.380Z,22.25
2022-12-03T00:40:50.193Z,22.13
2022-12-03T00:43:17.098Z,21.65
2022-12-03T00:45:43.879Z,21.15
2022-12-03T00:48:10.696Z,21.63
2022-12-03T00:50:37.470Z,20.52
2022-12-03T00:53:04.266Z,21.55
2022-12-03T00:55:31.037Z,22.77
2022-12-03T00:57:57.877Z,20.30
2022-12-03T01:00:25.523Z,20.27
2022-12-03T01:02:53.145Z,21.05
2022-12-03T01:05:20.748Z,23.20
2022-12-03T01:07:47.891Z,20.92
2022-12-03T01:10:14.990Z,20.30
2022-12-03T01:12:41.928Z,22.70
2022-12-03T01:15:09.756Z,21.95
2022-12-03T01:17:36.755Z,20.65
2022-12-03T01:20:06.012Z,22.17
2022-12-03T01:22:32.918Z,21.00
2022-12-03T01:24:59.806Z,21.85
2022-12-03T01:27:26.569Z,20.95
2022-12-03T01:29:53.407Z,22.13
2022-12-03T01:32:20.274Z,20.83
2022-12-03T01:34:57.350Z,21.08
2022-12-03T01:37:26.357Z,22.73
2022-12-03T01:39:53.574Z,22.10
2022-12-03T01:42:35.511Z,20.50
2022-12-03T01:45:03.111Z,21.05
2022-12-03T01:47:37.863Z,20.30
2022-12-03T01:50:14.764Z,22.23
2022-12-03T01:52:42.120Z,19.65
2022-12-03T01:55:18.023Z,21.95
2022-12-03T01:57:51.333Z,20.33
2022-12-03T02:02:55.362Z,19.92
2022-12-03T02:05:28.224Z,20.67
2022-12-03T02:07:55.627Z,19.75
2022-12-03T02:10:29.884Z,19.58
2022-12-03T02:13:00.965Z,18.90
2022-12-03T02:15:27.885Z,19.83
2022-12-03T02:17:55.442Z,19.65
2022-12-03T02:20:22.613Z,18.00
2022-12-03T02:23:07.310Z,18.35
2022-12-03T02:25:35.438Z,19.30
2022-12-03T02:28:04.124Z,18.95
2022-12-03T02:30:31.731Z,18.73
2022-12-03T02:32:59.263Z,18.95
2022-12-03T02:35:32.788Z,18.17
2022-12-03T02:38:15.167Z,17.90
2022-12-03T02:40:43.715Z,18.77
2022-12-03T02:43:11.400Z,20.33
2022-12-03T02:45:50.822Z,18.65
2022-12-03T02:48:30.999Z,17.98
2022-12-03T02:51:01.251Z,18.45
2022-12-03T02:53:35.498Z,19.95
2022-12-03T02:56:03.328Z,18.38
2022-12-03T02:58:32.326Z,19.08
2022-12-03T03:01:00.677Z,20.77
2022-12-03T03:03:29.165Z,19.65
2022-12-03T03:05:56.910Z,19.95
2022-12-03T03:08:25.311Z,21.23
2022-12-03T03:10:52.741Z,20.65
2022-12-03T03:13:20.633Z,20.05
2022-12-03T03:15:48.058Z,21.05
2022-12-03T03:18:15.559Z,22.15
2022-12-03T03:20:43.464Z,20.92
2022-12-03T03:23:19.311Z,22.35
2022-12-03T03:26:08.208Z,20.92
2022-12-03T03:28:38.341Z,21.40
2022-12-03T03:31:07.812Z,21.77
2022-12-03T03:33:36.711Z,21.80
2022-12-03T03:36:03.795Z,20.88
2022-12-03T03:38:31.409Z,20.17
2022-12-03T03:41:00.195Z,21.50
2022-12-03T03:43:27.970Z,21.70
2022-12-03T03:45:55.502Z,21.15
2022-12-03T03:48:23.171Z,21.65
2022-12-03T03:50:51.642Z,21.23
2022-12-03T03:53:19.613Z,21.00
2022-12-03T03:55:46.911Z,20.95
2022-12-03T03:58:14.104Z,21.25
2022-12-03T04:00:44.335Z,21.00
2022-12-03T04:03:11.711Z,21.95
2022-12-03T04:05:39.252Z,21.75
2022-12-03T04:08:06.204Z,21.55
2022-12-03T04:10:51.388Z,22.08
2022-12-03T04:13:18.145Z,21.70
2022-12-03T04:15:44.933Z,20.88
2022-12-03T04:18:30.501Z,20.90
2022-12-03T04:21:17.242Z,21.75
2022-12-03T04:23:44.043Z,21.35
2022-12-03T04:26:29.101Z,22.20
2022-12-03T04:28:56.079Z,20.65
2022-12-03T04:31:41.413Z,21.40
2022-12-03T04:34:28.319Z,20.52
2022-12-03T04:36:55.680Z,21.05
2022-12-03T04:39:22.785Z,20.98
2022-12-03T04:41:49.553Z,20.30
2022-12-03T04:44:35.114Z,20.30
2022-12-03T04:47:22.512Z,19.48
2022-12-03T04:49:51.297Z,20.20
2022-12-03T04:52:19.799Z,20.17
2022-12-03T04:54:46.790Z,19.70
2022-12-03T04:57:13.793Z,21.17
2022-12-03T04:59:40.788Z,19.95
2022-12-03T05:02:08.020Z,19.98
2022-12-03T05:04:35.015Z,20.85
2022-12-03T05:07:01.923Z,20.75
2022-12-03T05:09:28.763Z,21.02
2022-12-03T05:11:55.566Z,20.67
2022-12-03T05:14:22.365Z,22.00
2022-12-03T05:16:49.261Z,21.88
2022-12-03T05:19:16.177Z,20.02
2022-12-03T05:21:43.061Z,20.75
2022-12-03T05:24:09.834Z,21.80
2022-12-03T05:26:36.708Z,21.27
2022-12-03T05:29:03.545Z,23.60
2022-12-03T05:31:30.400Z,21.63
2022-12-03T05:33:57.246Z,22.67
2022-12-03T05:36:25.343Z,23.33
2022-12-03T05:38:52.638Z,22.45
2022-12-03T05:41:37.988Z,24.02
2022-12-03T05:44:05.011Z,22.27
2022-12-03T05:46:32.679Z,22.00
2022-12-03T05:48:59.576Z,22.42
2022-12-03T05:51:26.329Z,23.08
2022-12-03T05:53:53.191Z,24.75
2022-12-03T05:56:20.024Z,24.92
2022-12-03T05:58:46.829Z,25.70
2022-12-03T06:01:13.684Z,25.65
2022-12-03T06:03:40.632Z,24.20
2022-12-03T06:06:07.922Z,24.90
2022-12-03T06:08:34.850Z,27.02
2022-12-03T06:11:01.682Z,25.65
2022-12-03T06:13:28.506Z,25.83
2022-12-03T06:15:55.392Z,27.95
2022-12-03T06:18:22.239Z,27.85
2022-12-03T06:20:48.982Z,25.50
2022-12-03T06:23:15.753Z,26.48
2022-12-03T06:25:42.522Z,25.63
2022-12-03T06:28:09.344Z,25.13
2022-12-03T06:30:36.190Z,25.80
2022-12-03T06:33:03.144Z,25.73
2022-12-03T06:35:30.005Z,24.42
2022-12-03T06:37:56.951Z,28.65
2022-12-03T06:40:24.793Z,24.90
2022-12-03T06:42:51.950Z,24.30
2022-12-03T06:45:18.816Z,25.80
2022-12-03T06:47:45.610Z,25.55
2022-12-03T06:50:13.811Z,24.23
2022-12-03T06:52:40.636Z,25.30
2022-12-03T06:55:08.122Z,25.83
2022-12-03T06:57:34.958Z,24.73
2022-12-03T07:00:02.339Z,25.52
2022-12-03T07:02:29.280Z,24.52
2022-12-03T07:04:56.619Z,24.77
2022-12-03T07:07:23.742Z,25.73
2022-12-03T07:09:50.565Z,23.83
2022-12-03T07:12:17.343Z,23.85
2022-12-03T07:14:44.168Z,24.55
2022-12-03T07:17:11.008Z,24.42
2022-12-03T07:19:37.790Z,25.90
2022-12-03T07:22:04.635Z,24.15
2022-12-03T07:24:31.556Z,25.88
2022-12-03T07:26:58.482Z,25.90
2022-12-03T07:29:25.384Z,24.95
2022-12-03T07:31:52.407Z,24.45
2022-12-03T07:34:19.276Z,27.10
2022-12-03T07:36:46.003Z,26.83
2022-12-03T07:39:13.605Z,26.85
2022-12-03T07:41:40.411Z,26.70
2022-12-03T07:44:12.569Z,26.73
2022-12-03T07:46:41.346Z,25.98
2022-12-03T07:49:08.271Z,26.05
2022-12-03T07:51:35.619Z,25.40
2022-12-03T07:54:02.394Z,25.17
2022-12-03T07:56:29.155Z,25.13
2022-12-03T07:58:56.151Z,23.13
2022-12-03T08:01:23.077Z,24.90
2022-12-03T08:03:50.022Z,27.48
2022-12-03T08:06:16.954Z,25.75
2022-12-03T08:08:43.790Z,24.17
2022-12-03T08:11:14.859Z,24.00
2022-12-03T08:13:41.938Z,25.98
2022-12-03T08:16:18.980Z,24.80
2022-12-03T08:18:47.761Z,23.92
2022-12-03T08:21:17.087Z,24.17
2022-12-03T08:23:44.275Z,24.67
2022-12-03T08:26:23.870Z,26.92
2022-12-03T08:28:51.950Z,24.65
2022-12-03T08:31:28.037Z,24.65
2022-12-03T08:34:18.048Z,23.38
2022-12-03T08:36:45.737Z,24.27
2022-12-03T08:39:28.068Z,24.42
2022-12-03T08:42:18.872Z,25.35
2022-12-03T08:44:45.701Z,24.02
2022-12-03T08:47:24.677Z,24.20
2022-12-03T08:49:58.231Z,27.05
2022-12-03T08:52:32.389Z,26.83
2022-12-03T08:55:02.712Z,25.83
2022-12-03T08:57:31.606Z,26.45
2022-12-03T09:00:21.946Z,24.90
2022-12-03T09:02:54.510Z,24.38
2022-12-03T09:05:32.569Z,28.20
2022-12-03T09:07:59.507Z,27.17
2022-12-03T09:10:26.407Z,26.40
2022-12-03T09:12:53.174Z,26.15
2022-12-03T09:15:20.095Z,26.02
2022-12-03T09:17:47.007Z,27.73
2022-12-03T09:20:13.830Z,27.00
2022-12-03T09:22:40.723Z,28.73
2022-12-03T09:25:07.831Z,28.27
2022-12-03T09:27:34.611Z,27.77
2022-12-03T09:30:01.464Z,28.30
2022-12-03T09:32:28.352Z,27.98
2022-12-03T09:34:55.529Z,26.90
2022-12-03T09:37:22.565Z,29.38
2022-12-03T09:39:49.375Z,27.67
2022-12-03T09:42:16.375Z,27.15
2022-12-03T09:44:43.574Z,27.45
2022-12-03T09:47:10.456Z,26.33
2022-12-03T09:49:38.283Z,25.55
2022-12-03T09:52:06.378Z,26.02
2022-12-03T09:54:34.450Z,26.38
2022-12-03T09:57:04.407Z,27.17
2022-12-03T09:59:34.265Z,27.08
2022-12-03T10:02:02.693Z,26.90
2022-12-03T10:04:30.196Z,27.65
2022-12-03T10:06:59.013Z,25.90
2022-12-03T10:09:28.542Z,25.92
2022-12-03T10:11:59.682Z,28.25
2022-12-03T10:14:27.738Z,26.95
2022-12-03T10:16:55.140Z,25.55
2022-12-03T10:19:31.505Z,25.80
2022-12-03T10:21:58.375Z,25.48
2022-12-03T10:24:33.665Z,26.38
2022-12-03T10:27:04.193Z,26.73
2022-12-03T10:29:34.851Z,27.33
2022-12-03T10:32:07.920Z,29.33
2022-12-03T10:34:38.448Z,26.17
2022-12-03T10:37:22.630Z,27.02
2022-12-03T10:40:05.336Z,27.23
2022-12-03T10:42:33.994Z,28.47
2022-12-03T10:45:06.834Z,27.95
2022-12-03T10:47:33.959Z,29.98
2022-12-03T10:50:15.816Z,28.45
2022-12-03T10:52:42.801Z,26.88
2022-12-03T10:55:12.780Z,28.88
2022-12-03T10:57:45.302Z,29.10
2022-12-03T11:00:20.225Z,27.73
2022-12-03T11:02:54.651Z,26.73
2022-12-03T11:05:27.446Z,27.65
2022-12-03T11:07:55.048Z,28.60
2022-12-03T11:10:22.177Z,29.75
2022-12-03T11:13:27.856Z,28.65
2022-12-03T11:15:57.876Z,28.55
2022-12-03T11:18:37.125Z,29.80
2022-12-03T11:21:08.932Z,29.80
2022-12-03T11:23:59.015Z,27.33
2022-12-03T11:26:38.005Z,29.10
2022-12-03T11:29:16.079Z,26.45
2022-12-03T11:31:48.203Z,26.48
2022-12-03T11:34:20.963Z,25.27
2022-12-03T11:37:09.929Z,27.38
2022-12-03T11:39:51.639Z,29.02
2022-12-03T11:42:27.387Z,27.02
2022-12-03T11:45:06.181Z,26.88
2022-12-03T11:47:58.867Z,27.30
2022-12-03T11:50:37.681Z,26.52
2022-12-03T11:53:26.811Z,26.63
2022-12-03T11:56:10.723Z,27.10
2022-12-03T11:58:43.173Z,27.67
2022-12-03T12:01:10.195Z,26.33
2022-12-03T12:03:43.791Z,26.00
2022-12-03T12:06:11.573Z,25.40
2022-12-03T12:08:41.431Z,25.30
2022-12-03T12:11:20.015Z,27.73
2022-12-03T12:13:51.623Z,27.90
2022-12-03T12:16:51.461Z,26.40
2022-12-03T12:19:37.347Z,26.80
2022-12-03T12:22:23.104Z,27.13
2022-12-03T12:24:54.395Z,24.85
2022-12-03T12:27:44.998Z,25.92
2022-12-03T12:30:20.486Z,27.55
2022-12-03T12:32:48.831Z,27.35
2022-12-03T12:35:24.415Z,25.83
2022-12-03T12:37:58.977Z,26.77
2022-12-03T12:40:29.881Z,26.85
2022-12-03T12:43:03.189Z,26.92
2022-12-03T12:45:37.288Z,26.08
2022-12-03T12:48:10.157Z,25.83
2022-12-03T12:50:38.879Z,25.90
2022-12-03T12:53:12.316Z,26.33
2022-12-03T12:55:40.430Z,25.90
2022-12-03T12:58:18.864Z,26.88
2022-12-03T13:00:54.677Z,26.17
2022-12-03T13:03:26.288Z,27.08
2022-12-03T13:05:54.295Z,26.35
2022-12-03T13:08:22.850Z,27.55
2022-12-03T13:10:51.778Z,26.10
2022-12-03T13:13:44.961Z,27.25
2022-12-03T13:16:20.762Z,27.00
2022-12-03T13:18:52.876Z,24.77
2022-12-03T13:21:36.566Z,27.90
2022-12-03T13:24:27.943Z,26.17
2022-12-03T13:26:55.218Z,27.98
2022-12-03T13:29:22.908Z,27.65
2022-12-03T13:31:56.213Z,27.88
2022-12-03T13:36:57.469Z,29.25
2022-12-03T13:39:36.895Z,28.75
2022-12-03T13:42:38.754Z,28.00
2022-12-03T13:45:15.043Z,27.52
2022-12-03T13:47:55.016Z,27.25
2022-12-03T13:50:35.636Z,26.63
2022-12-03T13:53:13.428Z,28.45
2022-12-03T13:55:44.848Z,28.33
2022-12-03T13:58:11.704Z,27.90
2022-12-03T14:00:38.786Z,26.92
2022-12-03T14:03:06.118Z,27.08
2022-12-03T14:05:32.886Z,26.38
2022-12-03T14:08:02.218Z,27.15
2022-12-03T14:10:29.666Z,28.15
2022-12-03T14:12:57.321Z,26.77
2022-12-03T14:15:26.261Z,27.40
2022-12-03T14:17:53.354Z,26.55
2022-12-03T14:20:20.643Z,27.50
2022-12-03T14:22:47.602Z,28.33
2022-12-03T14:25:14.580Z,29.13
2022-12-03T14:27:41.381Z,25.88
2022-12-03T14:30:09.710Z,29.23
2022-12-03T14:32:36.593Z,26.90
2022-12-03T14:35:09.508Z,28.20
2022-12-03T14:37:36.836Z,28.38
2022-12-03T14:40:04.145Z,28.08
2022-12-03T14:42:31.014Z,29.42
2022-12-03T14:44:57.849Z,27.13
2022-12-03T14:47:24.693Z,29.00
2022-12-03T14:50:05.307Z,27.10
2022-12-03T14:52:32.351Z,29.13
2022-12-03T14:55:01.070Z,25.95
2022-12-03T14:57:27.864Z,28.30
2022-12-03T14:59:58.085Z,28.48
2022-12-03T15:02:25.092Z,27.52
2022-12-03T15:04:52.414Z,28.23
2022-12-03T15:07:19.248Z,28.50
2022-12-03T15:09:46.129Z,27.60
2022-12-03T15:12:12.909Z,28.52
2022-12-03T15:14:41.311Z,28.35
2022-12-03T15:17:08.552Z,28.95
2022-12-03T15:19:35.615Z,27.67
2022-12-03T15:22:02.582Z,27.45
2022-12-03T15:24:42.882Z,27.55
2022-12-03T15:27:35.368Z,25.85
2022-12-03T15:30:02.284Z,30.02
2022-12-03T15:32:29.144Z,26.27
2022-12-03T15:34:55.964Z,26.13
2022-12-03T15:37:27.508Z,25.95
2022-12-03T15:39:54.867Z,27.50
2022-12-03T15:42:21.924Z,27.90
2022-12-03T15:44:48.824Z,28.58
2022-12-03T15:47:15.775Z,27.58
2022-12-03T15:49:42.796Z,26.52
2022-12-03T15:52:09.614Z,29.77
2022-12-03T15:54:36.477Z,25.40
2022-12-03T15:57:03.396Z,24.15
2022-12-03T15:59:30.263Z,26.80
2022-12-03T16:01:57.395Z,24.05
2022-12-03T16:04:24.475Z,22.77
2022-12-03T16:06:51.310Z,25.73
2022-12-03T16:09:22.309Z,24.30
2022-12-03T16:11:52.379Z,24.90
2022-12-03T16:14:20.414Z,24.13
2022-12-03T16:16:47.604Z,24.98
2022-12-03T16:19:14.429Z,24.13
2022-12-03T16:21:41.435Z,26.02
2022-12-03T16:24:08.324Z,24.80
2022-12-03T16:26:35.257Z,25.73
2022-12-03T16:29:02.161Z,24.55
2022-12-03T16:31:29.180Z,25.92
2022-12-03T16:33:56.281Z,25.92
2022-12-03T16:36:23.211Z,27.55
2022-12-03T16:38:50.164Z,27.50
2022-12-03T16:41:18.099Z,26.35
2022-12-03T16:43:47.434Z,27.02
2022-12-03T16:46:14.846Z,29.92
2022-12-03T16:48:41.922Z,27.85
2022-12-03T16:51:09.286Z,28.67
2022-12-03T16:53:36.371Z,28.85
2022-12-03T16:56:03.583Z,28.52
2022-12-03T16:58:33.421Z,27.70
2022-12-03T17:01:00.251Z,29.48
2022-12-03T17:03:33.440Z,28.15
2022-12-03T17:06:01.691Z,28.08
2022-12-03T17:08:28.614Z,27.42
2022-12-03T17:10:55.539Z,28.60
2022-12-03T17:13:23.342Z,27.88
2022-12-03T17:15:51.019Z,28.77
2022-12-03T17:18:17.893Z,30.60
2022-12-03T17:20:44.793Z,28.75
2022-12-03T17:23:12.312Z,28.90
2022-12-03T17:25:39.094Z,29.20
2022-12-03T17:28:05.885Z,28.63
2022-12-03T17:30:32.815Z,27.70
2022-12-03T17:32:59.692Z,29.30
2022-12-03T17:35:28.641Z,26.90
2022-12-03T17:37:55.656Z,26.95
2022-12-03T17:40:22.520Z,28.90
2022-12-03T17:42:49.444Z,26.98
2022-12-03T17:45:16.389Z,25.70
2022-12-03T17:47:43.270Z,26.15
2022-12-03T17:50:10.528Z,25.88
2022-12-03T17:52:37.349Z,25.75
2022-12-03T17:55:16.275Z,24.98
2022-12-03T17:57:48.656Z,24.02
2022-12-03T18:00:15.771Z,25.77
2022-12-03T18:02:42.890Z,25.40
2022-12-03T18:05:10.431Z,25.10
2022-12-03T18:07:37.400Z,26.60
2022-12-03T18:10:04.889Z,27.02
2022-12-03T18:12:31.908Z,27.38
2022-12-03T18:14:58.809Z,25.65
2022-12-03T18:17:25.681Z,27.25
2022-12-03T18:19:53.088Z,25.33
2022-12-03T18:22:20.532Z,24.65
2022-12-03T18:24:51.549Z,27.23
2022-12-03T18:27:21.036Z,25.92
2022-12-03T18:29:48.202Z,24.02
2022-12-03T18:32:28.246Z,24.00
2022-12-03T18:34:56.466Z,24.67
2022-12-03T18:37:29.193Z,25.63
2022-12-03T18:39:57.537Z,23.48
2022-12-03T18:42:25.108Z,25.13
2022-12-03T18:44:54.291Z,27.17
2022-12-03T18:47:23.595Z,28.02
2022-12-03T18:49:50.712Z,27.42
2022-12-03T18:52:20.620Z,26.52
2022-12-03T18:54:48.140Z,26.48
2022-12-03T18:57:15.757Z,26.77
2022-12-03T18:59:42.941Z,26.80
2022-12-03T19:02:45.943Z,26.02
2022-12-03T19:05:06.939Z,27.30
2022-12-03T19:07:33.997Z,24.80
2022-12-03T19:10:00.957Z,27.48
2022-12-03T19:12:27.897Z,24.83
2022-12-03T19:14:54.769Z,24.92
2022-12-03T19:17:21.761Z,26.02
2022-12-03T19:19:48.724Z,27.73
2022-12-03T19:22:15.615Z,27.73
2022-12-03T19:24:42.480Z,26.45
2022-12-03T19:27:09.403Z,26.33
2022-12-03T19:29:36.349Z,27.15
2022-12-03T19:32:03.888Z,28.27
2022-12-03T19:34:30.847Z,27.77
2022-12-03T19:36:57.744Z,28.15
2022-12-03T19:39:25.014Z,28.02
2022-12-03T19:41:51.874Z,29.40
2022-12-03T19:44:19.189Z,27.73
2022-12-03T19:46:46.227Z,27.02
2022-12-03T19:49:13.236Z,28.77
2022-12-03T19:51:40.140Z,29.25
2022-12-03T19:54:09.998Z,29.27
2022-12-03T19:56:36.903Z,30.30
2022-12-03T19:59:05.190Z,28.83
2022-12-03T20:01:33.995Z,29.83
2022-12-03T20:04:02.334Z,28.63
2022-12-03T20:06:32.040Z,29.00
2022-12-03T20:09:06.074Z,27.33
2022-12-03T20:11:34.884Z,28.60
2022-12-03T20:14:05.768Z,30.05
2022-12-03T20:16:32.884Z,29.40
2022-12-03T20:19:02.660Z,29.42
2022-12-03T20:21:31.123Z,31.02
2022-12-03T20:23:58.163Z,29.92
2022-12-03T20:26:25.529Z,29.42
2022-12-03T20:28:56.593Z,28.92
2022-12-03T20:31:26.369Z,29.38
2022-12-03T20:33:57.260Z,27.65
2022-12-03T20:36:25.296Z,31.15
2022-12-03T20:38:57.719Z,31.23
2022-12-03T20:41:24.999Z,29.95
2022-12-03T20:43:52.854Z,29.30
2022-12-03T20:46:21.069Z,29.35
2022-12-03T20:48:48.344Z,28.00
2022-12-03T20:51:18.202Z,28.52
2022-12-03T20:53:45.935Z,26.92
2022-12-03T20:56:24.864Z,28.42
2022-12-03T20:58:53.229Z,28.33
2022-12-03T21:01:29.095Z,28.13
2022-12-03T21:03:57.314Z,27.90
2022-12-03T21:06:26.562Z,27.98
2022-12-03T21:08:54.889Z,29.00
2022-12-03T21:11:24.932Z,28.08
2022-12-03T21:13:53.819Z,28.10
2022-12-03T21:16:45.620Z,27.85
2022-12-03T21:19:11.424Z,27.25
2022-12-03T21:21:38.362Z,28.10
2022-12-03T21:24:05.431Z,27.08
2022-12-03T21:26:32.681Z,25.88
2022-12-03T21:28:59.503Z,28.75
2022-12-03T21:31:27.248Z,27.48
2022-12-03T21:33:55.713Z,28.13
2022-12-03T21:36:24.028Z,28.30
2022-12-03T21:38:50.979Z,29.75
2022-12-03T21:41:18.126Z,28.58
2022-12-03T21:43:45.179Z,28.27
2022-12-03T21:47:10.609Z,34.35
2022-12-03T21:49:04.566Z,29.48
2022-12-03T21:51:31.432Z,30.33
2022-12-03T21:53:58.266Z,31.65
2022-12-03T21:56:25.042Z,30.55
2022-12-03T21:58:51.920Z,29.85
2022-12-03T22:01:23.678Z,31.55
2022-12-03T22:03:51.300Z,32.38
2022-12-03T22:06:18.409Z,30.52
2022-12-03T22:08:45.815Z,31.88
2022-12-03T22:11:16.157Z,31.05
2022-12-03T22:13:43.215Z,31.33
2022-12-03T22:16:13.445Z,31.67
2022-12-03T22:18:40.606Z,31.27
2022-12-03T22:21:11.870Z,31.83
2022-12-03T22:23:38.817Z,31.38
2022-12-03T22:26:08.400Z,33.67
2022-12-03T22:28:35.564Z,31.77
2022-12-03T22:31:09.557Z,31.45
2022-12-03T22:33:36.865Z,29.77
2022-12-03T22:36:06.932Z,30.20
2022-12-03T22:38:34.141Z,34.58
2022-12-03T22:41:06.121Z,31.98
2022-12-03T22:43:33.338Z,31.08
2022-12-03T22:46:00.291Z,34.40
2022-12-03T22:48:27.168Z,31.98
2022-12-03T22:50:54.073Z,30.58
2022-12-03T22:53:21.295Z,31.23
2022-12-03T22:55:57.767Z,31.45
2022-12-03T22:58:25.386Z,31.20
2022-12-03T23:00:52.870Z,32.83
2022-12-03T23:03:20.203Z,32.22
2022-12-03T23:05:47.381Z,32.10
2022-12-03T23:08:17.286Z,31.65
2022-12-03T23:10:46.698Z,33.20
2022-12-03T23:13:13.520Z,33.00
2022-12-03T23:15:51.405Z,32.15
2022-12-03T23:18:19.576Z,33.70
2022-12-03T23:20:52.186Z,31.38
2022-12-03T23:23:21.061Z,30.55
2022-12-03T23:26:07.826Z,33.83
2022-12-03T23:28:36.727Z,31.77
2022-12-03T23:31:05.275Z,32.78
2022-12-03T23:33:37.919Z,32.95
2022-12-03T23:36:06.825Z,32.13
2022-12-03T23:38:33.681Z,31.80
2022-12-03T23:41:08.866Z,33.33
2022-12-03T23:43:37.600Z,31.75
2022-12-03T23:46:06.186Z,33.40
2022-12-03T23:48:33.539Z,31.83
2022-12-03T23:51:04.704Z,31.80
2022-12-03T23:53:31.508Z,31.75
2022-12-03T23:55:58.316Z,32.10
2022-12-03T23:58:25.093Z,33.80
